createdAt,value
2022-12-02T00:00:58.528Z,2.70
2022-12-02T00:03:27.063Z,2.70
2022-12-02T00:05:57.022Z,2.70
2022-12-02T00:08:29.055Z,2.70
2022-12-02T00:10:58.695Z,2.80
2022-12-02T00:13:28.907Z,2.80
2022-12-02T00:15:58.947Z,2.80
2022-12-02T00:18:27.282Z,2.80
2022-12-02T00:20:57.172Z,2.80
2022-12-02T00:23:25.404Z,2.80
2022-12-02T00:25:55.199Z,2.80
2022-12-02T00:28:23.245Z,2.80
2022-12-02T00:30:51.195Z,2.80
2022-12-02T00:33:19.102Z,2.90
2022-12-02T00:35:47.223Z,2.90
2022-12-02T00:38:16.338Z,2.90
2022-12-02T00:40:44.178Z,2.90
2022-12-02T00:43:29.349Z,3.00
2022-12-02T00:46:13.723Z,3.00
2022-12-02T00:48:41.472Z,3.00
2022-12-02T00:51:09.260Z,3.00
2022-12-02T00:53:38.297Z,3.00
2022-12-02T00:56:06.495Z,3.00
2022-12-02T00:58:34.235Z,2.90
2022-12-02T01:01:02.014Z,2.90
2022-12-02T01:03:29.770Z,3.00
2022-12-02T01:05:57.522Z,2.90
2022-12-02T01:08:27.440Z,2.90
2022-12-02T01:10:57.447Z,2.90
2022-12-02T01:13:26.751Z,2.90
2022-12-02T01:15:55.137Z,2.90
2022-12-02T01:18:22.914Z,3.00
2022-12-02T01:20:51.023Z,3.00
2022-12-02T01:23:18.879Z,3.00
2022-12-02T01:25:48.285Z,3.00
2022-12-02T01:28:18.227Z,3.00
2022-12-02T01:30:46.583Z,3.00
2022-12-02T01:33:14.367Z,3.00
2022-12-02T01:35:42.267Z,3.00
2022-12-02T01:38:10.568Z,3.00
2022-12-02T01:40:39.112Z,2.90
2022-12-02T01:43:06.834Z,3.00
2022-12-02T01:45:36.140Z,2.90
2022-12-02T01:48:04.654Z,2.90
2022-12-02T01:50:33.073Z,2.90
2022-12-02T01:53:01.095Z,2.90
2022-12-02T01:55:30.427Z,2.90
2022-12-02T01:57:59.003Z,2.90
2022-12-02T02:00:27.017Z,2.90
2022-12-02T02:02:56.410Z,2.90
2022-12-02T02:05:27.118Z,2.90
2022-12-02T02:07:57.462Z,2.90
2022-12-02T02:10:26.681Z,2.90
2022-12-02T02:12:54.565Z,2.90
2022-12-02T02:15:23.626Z,2.90
2022-12-02T02:17:52.415Z,2.90
2022-12-02T02:20:24.373Z,2.90
2022-12-02T02:22:57.383Z,2.90
2022-12-02T02:25:26.482Z,2.80
2022-12-02T02:27:56.544Z,2.90
2022-12-02T02:30:24.528Z,2.90
2022-12-02T02:32:53.016Z,2.90
2022-12-02T02:35:21.985Z,2.90
2022-12-02T02:37:51.789Z,2.80
2022-12-02T02:40:20.863Z,2.80
2022-12-02T02:42:53.345Z,2.80
2022-12-02T02:45:23.108Z,2.80
2022-12-02T02:47:51.938Z,2.80
2022-12-02T02:50:20.688Z,2.80
2022-12-02T02:52:48.605Z,2.80
2022-12-02T02:55:20.396Z,2.80
2022-12-02T02:57:49.468Z,2.80
2022-12-02T03:00:18.691Z,2.80
2022-12-02T03:02:50.383Z,2.70
2022-12-02T03:05:18.789Z,2.70
2022-12-02T03:07:47.223Z,2.70
2022-12-02T03:10:15.537Z,2.70
2022-12-02T03:12:43.622Z,2.70
2022-12-02T03:15:12.879Z,2.70
2022-12-02T03:17:40.779Z,2.70
2022-12-02T03:20:09.391Z,2.60
2022-12-02T03:22:37.099Z,2.60
2022-12-02T03:25:05.839Z,2.70
2022-12-02T03:27:33.879Z,2.60
2022-12-02T03:30:01.972Z,2.60
2022-12-02T03:32:31.133Z,2.60
2022-12-02T03:34:59.427Z,2.60
2022-12-02T03:37:27.387Z,2.60
2022-12-02T03:39:55.371Z,2.60
2022-12-02T03:42:23.315Z,2.60
2022-12-02T03:44:51.878Z,2.60
2022-12-02T03:47:19.728Z,2.60
2022-12-02T03:49:49.048Z,2.60
2022-12-02T03:52:16.929Z,2.60
2022-12-02T03:54:44.792Z,2.60
2022-12-02T03:57:12.535Z,2.60
2022-12-02T03:59:40.252Z,2.60
2022-12-02T04:02:08.997Z,2.70
2022-12-02T04:04:36.812Z,2.60
2022-12-02T04:07:05.849Z,2.70
2022-12-02T04:09:33.576Z,2.70
2022-12-02T04:12:01.279Z,2.70
2022-12-02T04:14:28.988Z,2.70
2022-12-02T04:16:56.675Z,2.70
2022-12-02T04:19:25.085Z,2.80
2022-12-02T04:21:52.899Z,2.70
2022-12-02T04:24:21.924Z,2.80
2022-12-02T04:26:49.657Z,2.70
2022-12-02T04:29:17.369Z,2.70
2022-12-02T04:31:45.157Z,2.70
2022-12-02T04:34:12.929Z,2.70
2022-12-02T04:36:40.651Z,2.70
2022-12-02T04:39:08.382Z,2.70
2022-12-02T04:41:37.465Z,2.80
2022-12-02T04:44:05.379Z,2.80
2022-12-02T04:46:33.167Z,2.80
2022-12-02T04:49:00.913Z,2.80
2022-12-02T04:51:28.589Z,2.80
2022-12-02T04:53:56.367Z,2.80
2022-12-02T04:56:24.065Z,2.80
2022-12-02T04:58:53.126Z,2.80
2022-12-02T05:01:20.850Z,2.70
2022-12-02T05:03:48.640Z,2.70
2022-12-02T05:06:16.560Z,2.70
2022-12-02T05:08:44.282Z,2.70
2022-12-02T05:11:12.056Z,2.70
2022-12-02T05:13:39.743Z,2.80
2022-12-02T05:16:09.068Z,2.80
2022-12-02T05:18:36.833Z,2.80
2022-12-02T05:21:04.852Z,2.80
2022-12-02T05:23:32.565Z,2.80
2022-12-02T05:26:00.281Z,2.70
2022-12-02T05:28:28.137Z,2.80
2022-12-02T05:30:55.901Z,2.80
2022-12-02T05:33:24.972Z,2.80
2022-12-02T05:35:52.850Z,2.80
2022-12-02T05:38:20.590Z,2.90
2022-12-02T05:40:48.281Z,2.90
2022-12-02T05:43:19.174Z,2.90
2022-12-02T05:45:47.265Z,2.90
2022-12-02T05:48:17.670Z,2.90
2022-12-02T05:50:47.412Z,2.90
2022-12-02T05:53:23.149Z,2.90
2022-12-02T05:55:51.143Z,2.90
2022-12-02T05:58:19.622Z,2.90
2022-12-02T06:00:50.071Z,2.90
2022-12-02T06:03:20.350Z,2.90
2022-12-02T06:05:50.588Z,2.90
2022-12-02T06:08:20.000Z,2.90
2022-12-02T06:10:49.994Z,2.90
2022-12-02T06:13:21.642Z,2.90
2022-12-02T06:15:50.470Z,2.90
2022-12-02T06:18:20.179Z,2.90
2022-12-02T06:20:54.631Z,2.90
2022-12-02T06:23:23.446Z,2.90
2022-12-02T06:25:52.899Z,2.90
2022-12-02T06:28:25.746Z,2.90
2022-12-02T06:30:57.563Z,2.90
2022-12-02T06:33:29.589Z,2.90
2022-12-02T06:36:00.200Z,2.90
2022-12-02T06:38:30.676Z,2.90
2022-12-02T06:41:00.407Z,2.90
2022-12-02T06:43:30.648Z,2.90
2022-12-02T06:45:59.130Z,2.90
2022-12-02T06:48:29.503Z,2.90
2022-12-02T06:51:01.354Z,2.90
2022-12-02T06:53:37.039Z,2.90
2022-12-02T06:56:15.757Z,3.00
2022-12-02T06:58:45.735Z,2.90
2022-12-02T07:01:31.247Z,2.90
2022-12-02T07:04:27.589Z,2.90
2022-12-02T07:06:59.417Z,2.90
2022-12-02T07:09:36.066Z,2.90
2022-12-02T07:12:03.748Z,2.90
2022-12-02T07:14:39.773Z,2.90
2022-12-02T07:17:21.926Z,2.90
2022-12-02T07:19:54.979Z,2.90
2022-12-02T07:22:26.370Z,2.90
2022-12-02T07:24:56.819Z,2.90
2022-12-02T07:27:27.087Z,2.90
2022-12-02T07:29:56.781Z,2.90
2022-12-02T07:32:24.723Z,2.90
2022-12-02T07:34:53.112Z,2.90
2022-12-02T07:37:21.804Z,2.90
2022-12-02T07:39:50.831Z,2.90
2022-12-02T07:42:18.605Z,2.90
2022-12-02T07:44:46.304Z,2.90
2022-12-02T07:47:14.034Z,2.90
2022-12-02T07:49:41.740Z,2.90
2022-12-02T07:52:09.472Z,2.90
2022-12-02T07:54:37.249Z,2.90
2022-12-02T07:57:06.405Z,2.90
2022-12-02T07:59:34.141Z,2.90
2022-12-02T08:02:01.939Z,2.90
2022-12-02T08:04:29.809Z,2.90
2022-12-02T08:06:57.571Z,2.90
2022-12-02T08:09:25.310Z,2.90
2022-12-02T08:11:53.804Z,2.90
2022-12-02T08:14:22.836Z,2.90
2022-12-02T08:16:50.553Z,2.90
2022-12-02T08:19:18.259Z,2.90
2022-12-02T08:21:45.998Z,2.90
2022-12-02T08:24:13.701Z,2.90
2022-12-02T08:26:43.158Z,2.90
2022-12-02T08:29:10.864Z,2.90
2022-12-02T08:31:39.887Z,2.90
2022-12-02T08:34:07.959Z,2.90
2022-12-02T08:36:35.926Z,2.90
2022-12-02T08:39:05.686Z,2.90
2022-12-02T08:41:34.046Z,2.90
2022-12-02T08:44:02.087Z,2.90
2022-12-02T08:46:29.857Z,2.90
2022-12-02T08:49:00.085Z,2.90
2022-12-02T08:51:28.125Z,2.90
2022-12-02T08:53:55.858Z,2.90
2022-12-02T08:56:23.615Z,3.00
2022-12-02T08:58:51.380Z,3.00
2022-12-02T09:01:19.255Z,3.00
2022-12-02T09:03:47.111Z,3.00
2022-12-02T09:06:16.203Z,3.00
2022-12-02T09:08:44.022Z,3.00
2022-12-02T09:11:11.995Z,3.10
2022-12-02T09:13:39.963Z,3.10
2022-12-02T09:16:07.957Z,3.10
2022-12-02T09:18:35.794Z,3.10
2022-12-02T09:21:03.554Z,3.10
2022-12-02T09:23:32.625Z,3.10
2022-12-02T09:26:00.362Z,3.10
2022-12-02T09:28:28.111Z,3.10
2022-12-02T09:30:55.873Z,3.10
2022-12-02T09:33:23.640Z,3.10
2022-12-02T09:35:52.051Z,3.10
2022-12-02T09:38:20.109Z,3.10
2022-12-02T09:40:49.252Z,3.20
2022-12-02T09:43:17.120Z,3.20
2022-12-02T09:45:44.892Z,3.20
2022-12-02T09:48:13.672Z,3.20
2022-12-02T09:50:41.596Z,3.20
2022-12-02T09:53:09.628Z,3.20
2022-12-02T09:55:38.494Z,3.20
2022-12-02T09:58:13.771Z,3.20
2022-12-02T10:00:41.581Z,3.20
2022-12-02T10:03:13.922Z,3.20
2022-12-02T10:05:45.136Z,3.30
2022-12-02T10:08:17.123Z,3.30
2022-12-02T10:10:45.753Z,3.30
2022-12-02T10:13:17.316Z,3.30
2022-12-02T10:15:45.443Z,3.30
2022-12-02T10:18:17.366Z,3.30
2022-12-02T10:20:45.107Z,3.30
2022-12-02T10:23:16.283Z,3.30
2022-12-02T10:25:46.328Z,3.30
2022-12-02T10:28:24.434Z,3.40
2022-12-02T10:30:55.298Z,3.40
2022-12-02T10:33:28.680Z,3.40
2022-12-02T10:35:57.263Z,3.40
2022-12-02T10:38:38.254Z,3.40
2022-12-02T10:41:22.868Z,3.40
2022-12-02T10:44:15.841Z,3.40
2022-12-02T10:46:43.855Z,3.40
2022-12-02T10:49:28.263Z,3.40
2022-12-02T10:51:59.023Z,3.40
2022-12-02T10:54:29.195Z,3.40
2022-12-02T10:56:57.484Z,3.40
2022-12-02T10:59:26.900Z,3.40
2022-12-02T11:01:55.038Z,3.40
2022-12-02T11:04:22.976Z,3.40
2022-12-02T11:06:50.815Z,3.40
2022-12-02T11:12:32.156Z,3.50
2022-12-02T11:15:01.676Z,3.50
2022-12-02T11:17:50.512Z,3.50
2022-12-02T11:20:37.257Z,3.50
2022-12-02T11:23:15.682Z,3.60
2022-12-02T11:26:03.413Z,3.60
2022-12-02T11:29:17.076Z,3.60
2022-12-02T11:32:02.041Z,3.60
2022-12-02T11:35:14.976Z,3.60
2022-12-02T11:37:41.483Z,3.60
2022-12-02T11:40:57.837Z,3.60
2022-12-02T11:43:53.191Z,3.60
2022-12-02T11:46:22.999Z,3.60
2022-12-02T11:48:54.603Z,3.60
2022-12-02T11:51:32.251Z,3.60
2022-12-02T11:54:00.785Z,3.60
2022-12-02T11:56:32.949Z,3.60
2022-12-02T11:59:00.785Z,3.60
2022-12-02T12:01:28.501Z,3.60
2022-12-02T12:03:57.608Z,3.60
2022-12-02T12:06:28.149Z,3.60
2022-12-02T12:08:57.644Z,3.60
2022-12-02T12:11:27.642Z,3.60
2022-12-02T12:14:06.825Z,3.60
2022-12-02T12:16:36.258Z,3.60
2022-12-02T12:19:29.497Z,3.50
2022-12-02T12:22:00.148Z,3.50
2022-12-02T12:24:29.994Z,3.50
2022-12-02T12:26:58.943Z,3.50
2022-12-02T12:29:28.696Z,3.50
2022-12-02T12:31:56.457Z,3.40
2022-12-02T12:34:24.224Z,3.40
2022-12-02T12:36:53.551Z,3.40
2022-12-02T12:39:21.387Z,3.40
2022-12-02T12:42:04.426Z,3.50
2022-12-02T12:44:33.175Z,3.50
2022-12-02T12:47:03.194Z,3.50
2022-12-02T12:49:31.199Z,3.50
2022-12-02T12:52:00.831Z,3.50
2022-12-02T12:54:28.544Z,3.50
2022-12-02T12:56:56.300Z,3.40
2022-12-02T12:59:24.100Z,3.40
2022-12-02T13:01:52.057Z,3.40
2022-12-02T13:04:20.106Z,3.40
2022-12-02T13:06:48.105Z,3.40
2022-12-02T13:09:17.259Z,3.40
2022-12-02T13:11:45.012Z,3.30
2022-12-02T13:14:12.713Z,3.30
2022-12-02T13:16:40.502Z,3.30
2022-12-02T13:19:08.260Z,3.30
2022-12-02T13:21:36.025Z,3.30
2022-12-02T13:24:05.361Z,3.30
2022-12-02T13:26:34.428Z,3.30
2022-12-02T13:29:02.115Z,3.30
2022-12-02T13:31:29.901Z,3.30
2022-12-02T13:33:57.721Z,3.20
2022-12-02T13:36:25.550Z,3.20
2022-12-02T13:38:53.342Z,3.20
2022-12-02T13:41:21.205Z,3.20
2022-12-02T13:43:50.282Z,3.20
2022-12-02T13:46:18.127Z,3.20
2022-12-02T13:48:45.915Z,3.20
2022-12-02T13:51:13.689Z,3.20
2022-12-02T13:53:43.389Z,3.20
2022-12-02T13:56:11.085Z,3.20
2022-12-02T13:58:39.005Z,3.20
2022-12-02T14:01:08.162Z,3.20
2022-12-02T14:03:36.029Z,3.10
2022-12-02T14:06:03.810Z,3.10
2022-12-02T14:08:31.502Z,3.10
2022-12-02T14:10:59.228Z,3.10
2022-12-02T14:13:26.944Z,3.10
2022-12-02T14:15:54.806Z,3.10
2022-12-02T14:18:23.913Z,3.10
2022-12-02T14:20:51.645Z,3.10
2022-12-02T14:23:19.358Z,3.10
2022-12-02T14:25:47.103Z,3.10
2022-12-02T14:28:14.820Z,3.10
2022-12-02T14:30:42.684Z,3.10
2022-12-02T14:33:10.656Z,3.10
2022-12-02T14:35:39.706Z,3.10
2022-12-02T14:38:07.438Z,3.10
2022-12-02T14:40:35.593Z,3.10
2022-12-02T14:43:03.329Z,3.00
2022-12-02T14:45:31.075Z,3.00
2022-12-02T14:47:58.841Z,3.00
2022-12-02T14:50:27.883Z,3.00
2022-12-02T14:52:58.412Z,3.00
2022-12-02T14:55:26.282Z,3.00
2022-12-02T14:57:54.026Z,3.00
2022-12-02T15:00:22.287Z,2.90
2022-12-02T15:02:50.100Z,2.90
2022-12-02T15:05:20.216Z,2.90
2022-12-02T15:07:48.373Z,2.90
2022-12-02T15:10:18.010Z,2.90
2022-12-02T15:12:45.769Z,2.80
2022-12-02T15:18:01.369Z,2.80
2022-12-02T15:20:29.294Z,2.70
2022-12-02T15:22:57.021Z,2.70
2022-12-02T15:25:26.144Z,2.70
2022-12-02T15:27:53.890Z,2.70
2022-12-02T15:30:21.669Z,2.70
2022-12-02T15:32:49.486Z,2.60
2022-12-02T15:35:17.476Z,2.60
2022-12-02T15:37:46.261Z,2.60
2022-12-02T15:40:14.531Z,2.60
2022-12-02T15:42:44.080Z,2.50
2022-12-02T15:45:12.074Z,2.50
2022-12-02T15:47:39.800Z,2.50
2022-12-02T15:50:08.166Z,2.50
2022-12-02T15:52:35.860Z,2.40
2022-12-02T15:55:03.704Z,2.50
2022-12-02T15:57:31.434Z,2.50
2022-12-02T16:00:00.646Z,2.50
2022-12-02T16:02:28.481Z,2.40
2022-12-02T16:04:56.267Z,2.40
2022-12-02T16:07:24.709Z,2.40
2022-12-02T16:09:52.649Z,2.40
2022-12-02T16:12:20.602Z,2.30
2022-12-02T16:14:53.634Z,2.30
2022-12-02T16:17:24.214Z,2.30
2022-12-02T16:19:52.072Z,2.20
2022-12-02T16:22:19.856Z,2.20
2022-12-02T16:24:47.581Z,2.20
2022-12-02T16:27:15.323Z,2.20
2022-12-02T16:29:43.042Z,2.10
2022-12-02T16:32:15.320Z,2.10
2022-12-02T16:34:47.751Z,2.10
2022-12-02T16:37:17.224Z,2.10
2022-12-02T16:39:44.945Z,2.10
2022-12-02T16:42:12.741Z,2.00
2022-12-02T16:44:40.450Z,2.00
2022-12-02T16:47:08.201Z,2.00
2022-12-02T16:49:35.960Z,2.00
2022-12-02T16:52:05.270Z,2.00
2022-12-02T16:54:33.059Z,2.00
2022-12-02T16:57:00.850Z,2.00
2022-12-02T16:59:28.582Z,1.90
2022-12-02T17:01:56.335Z,1.90
2022-12-02T17:04:24.104Z,1.90
2022-12-02T17:06:51.864Z,1.90
2022-12-02T17:09:21.173Z,1.90
2022-12-02T17:11:49.060Z,1.90
2022-12-02T17:14:16.765Z,1.90
2022-12-02T17:16:44.539Z,1.90
2022-12-02T17:19:12.309Z,1.90
2022-12-02T17:21:40.050Z,1.90
2022-12-02T17:24:08.116Z,1.90
2022-12-02T17:26:37.209Z,1.90
2022-12-02T17:29:04.911Z,1.80
2022-12-02T17:31:32.766Z,1.90
2022-12-02T17:34:00.546Z,1.80
2022-12-02T17:36:28.419Z,1.80
2022-12-02T17:38:57.650Z,1.80
2022-12-02T17:41:26.666Z,1.80
2022-12-02T17:43:55.732Z,1.90
2022-12-02T17:46:23.531Z,1.80
2022-12-02T17:48:51.274Z,1.80
2022-12-02T17:51:19.380Z,1.80
2022-12-02T17:53:47.166Z,1.80
2022-12-02T17:56:14.884Z,1.80
2022-12-02T17:58:42.627Z,1.80
2022-12-02T18:01:12.643Z,1.90
2022-12-02T18:03:40.726Z,1.80
2022-12-02T18:06:09.201Z,1.80
2022-12-02T18:08:37.225Z,1.80
2022-12-02T18:11:04.952Z,1.80
2022-12-02T18:13:32.779Z,1.80
2022-12-02T18:16:00.487Z,1.80
2022-12-02T18:18:29.503Z,1.80
2022-12-02T18:20:57.210Z,1.80
2022-12-02T18:23:27.777Z,1.80
2022-12-02T18:25:55.792Z,1.80
2022-12-02T18:28:23.503Z,1.80
2022-12-02T18:30:51.302Z,1.80
2022-12-02T18:33:19.221Z,1.80
2022-12-02T18:35:48.315Z,1.80
2022-12-02T18:38:16.051Z,1.80
2022-12-02T18:40:43.777Z,1.80
2022-12-02T18:43:11.466Z,1.80
2022-12-02T18:45:39.284Z,1.80
2022-12-02T18:48:07.496Z,1.80
2022-12-02T18:50:35.217Z,1.70
2022-12-02T18:53:04.372Z,1.80
2022-12-02T18:55:32.040Z,1.70
2022-12-02T18:57:59.734Z,1.80
2022-12-02T19:00:27.423Z,1.70
2022-12-02T19:02:55.220Z,1.70
2022-12-02T19:05:23.028Z,1.70
2022-12-02T19:07:50.834Z,1.70
2022-12-02T19:10:20.125Z,1.60
2022-12-02T19:12:47.793Z,1.60
2022-12-02T19:15:18.879Z,1.60
2022-12-02T19:17:46.635Z,1.60
2022-12-02T19:20:14.819Z,1.60
2022-12-02T19:22:42.572Z,1.50
2022-12-02T19:25:10.321Z,1.50
2022-12-02T19:30:27.618Z,1.60
2022-12-02T19:32:55.329Z,1.60
2022-12-02T19:35:23.076Z,1.50
2022-12-02T19:37:50.886Z,1.50
2022-12-02T19:40:18.657Z,1.50
2022-12-02T19:42:47.737Z,1.40
2022-12-02T19:45:15.947Z,1.40
2022-12-02T19:47:43.777Z,1.40
2022-12-02T19:50:12.724Z,1.40
2022-12-02T19:52:41.032Z,1.40
2022-12-02T19:55:09.663Z,1.40
2022-12-02T19:57:37.393Z,1.40
2022-12-02T20:00:07.648Z,1.40
2022-12-02T20:02:35.521Z,1.40
2022-12-02T20:05:03.316Z,1.40
2022-12-02T20:07:31.063Z,1.30
2022-12-02T20:09:58.880Z,1.30
2022-12-02T20:12:26.618Z,1.30
2022-12-02T20:14:54.636Z,1.30
2022-12-02T20:17:24.261Z,1.30
2022-12-02T20:19:51.972Z,1.30
2022-12-02T20:22:19.712Z,1.30
2022-12-02T20:24:47.394Z,1.30
2022-12-02T20:27:15.304Z,1.30
2022-12-02T20:29:43.053Z,1.30
2022-12-02T20:32:11.009Z,1.30
2022-12-02T20:34:40.996Z,1.30
2022-12-02T20:37:08.921Z,1.30
2022-12-02T20:39:36.690Z,1.30
2022-12-02T20:42:04.575Z,1.30
2022-12-02T20:44:32.308Z,1.30
2022-12-02T20:47:00.083Z,1.30
2022-12-02T20:49:27.891Z,1.30
2022-12-02T20:51:56.945Z,1.30
2022-12-02T20:54:25.932Z,1.30
2022-12-02T20:56:53.833Z,1.20
2022-12-02T20:59:21.541Z,1.30
2022-12-02T21:01:49.269Z,1.30
2022-12-02T21:04:17.027Z,1.30
2022-12-02T21:06:44.719Z,1.30
2022-12-02T21:09:15.619Z,1.30
2022-12-02T21:11:43.343Z,1.30
2022-12-02T21:17:07.702Z,1.30
2022-12-02T21:19:35.544Z,1.30
2022-12-02T21:22:03.272Z,1.30
2022-12-02T21:24:32.332Z,1.30
2022-12-02T21:27:00.068Z,1.20
2022-12-02T21:29:27.891Z,1.30
2022-12-02T21:31:55.664Z,1.20
2022-12-02T21:34:23.450Z,1.20
2022-12-02T21:36:51.181Z,1.20
2022-12-02T21:39:18.892Z,1.20
2022-12-02T21:41:47.932Z,1.20
2022-12-02T21:44:15.709Z,1.20
2022-12-02T21:46:43.973Z,1.20
2022-12-02T21:49:11.891Z,1.20
2022-12-02T21:51:39.778Z,1.20
2022-12-02T21:54:07.478Z,1.10
2022-12-02T21:56:37.093Z,1.10
2022-12-02T21:59:06.473Z,1.10
2022-12-02T22:01:41.834Z,1.10
2022-12-02T22:04:15.408Z,1.00
2022-12-02T22:06:43.614Z,1.00
2022-12-02T22:09:11.366Z,1.00
2022-12-02T22:11:40.696Z,1.00
2022-12-02T22:14:09.768Z,0.90
2022-12-02T22:16:37.516Z,1.00
2022-12-02T22:19:07.976Z,0.90
2022-12-02T22:21:38.085Z,0.90
2022-12-02T22:24:06.493Z,0.90
2022-12-02T22:26:34.185Z,0.90
2022-12-02T22:29:01.898Z,0.90
2022-12-02T22:31:30.987Z,0.90
2022-12-02T22:33:58.724Z,0.80
2022-12-02T22:36:26.413Z,0.90
2022-12-02T22:38:54.185Z,0.90
2022-12-02T22:41:21.882Z,0.80
2022-12-02T22:43:49.619Z,0.90
2022-12-02T22:46:17.394Z,0.80
2022-12-02T22:48:46.534Z,0.80
2022-12-02T22:51:14.251Z,0.90
2022-12-02T22:53:42.011Z,0.80
2022-12-02T22:56:09.740Z,0.90
2022-12-02T22:58:37.444Z,0.80
2022-12-02T23:01:05.305Z,0.90
2022-12-02T23:03:33.035Z,0.90
2022-12-02T23:06:02.246Z,0.90
2022-12-02T23:08:30.520Z,0.90
2022-12-02T23:10:58.236Z,0.90
2022-12-02T23:13:25.971Z,0.90
2022-12-02T23:15:53.705Z,1.00
2022-12-02T23:18:21.546Z,1.00
2022-12-02T23:20:49.332Z,1.10
2022-12-02T23:23:18.415Z,1.00
2022-12-02T23:25:46.141Z,1.00
2022-12-02T23:28:13.836Z,1.00
2022-12-02T23:30:41.656Z,1.00
2022-12-02T23:33:09.412Z,1.00
2022-12-02T23:35:37.122Z,1.00
2022-12-02T23:38:04.806Z,1.00
2022-12-02T23:40:33.844Z,1.00
2022-12-02T23:43:01.559Z,1.00
2022-12-02T23:45:29.371Z,1.00
2022-12-02T23:47:57.125Z,1.00
2022-12-02T23:50:24.933Z,1.10
2022-12-02T23:52:52.651Z,1.10
2022-12-02T23:55:20.458Z,1.00
2022-12-02T23:57:49.545Z,1.00
